sensor_id;sensor_type;location;lat;lon;timestamp;pressure;altitude;pressure_sealevel;temperature;humidity
60015;BME280;45867;52.480;6.056;2023-12-14T00:01:48;100040.34;;;4.11;100.00
60015;BME280;45867;52.480;6.056;2023-12-14T00:04:15;100065.66;;;4.22;100.00
60015;BME280;45867;52.480;6.056;2023-12-14T00:06:42;100046.19;;;3.96;100.00
60015;BME280;45867;52.480;6.056;2023-12-14T00:09:08;100075.78;;;4.13;100.00
60015;BME280;45867;52.480;6.056;2023-12-14T00:11:38;100082.06;;;4.12;100.00
60015;BME280;45867;52.480;6.056;2023-12-14T00:14:06;100099.16;;;4.15;100.00
60015;BME280;45867;52.480;6.056;2023-12-14T00:16:35;100098.44;;;4.03;100.00
60015;BME280;45867;52.480;6.056;2023-12-14T00:19:02;100114.03;;;4.09;100.00
60015;BME280;45867;52.480;6.056;2023-12-14T00:21:32;100103.13;;;4.00;100.00
60015;BME280;45867;52.480;6.056;2023-12-14T00:23:59;100129.09;;;4.19;100.00
60015;BME280;45867;52.480;6.056;2023-12-14T00:26:28;100132.28;;;4.21;100.00
60015;BME280;45867;52.480;6.056;2023-12-14T00:28:55;100134.41;;;4.24;100.00
60015;BME280;45867;52.480;6.056;2023-12-14T00:31:27;100136.31;;;4.29;100.00
60015;BME280;45867;52.480;6.056;2023-12-14T00:34:00;100118.63;;;4.02;100.00
60015;BME280;45867;52.480;6.056;2023-12-14T00:36:26;100135.78;;;4.10;100.00
60015;BME280;45867;52.480;6.056;2023-12-14T00:38:54;100151.25;;;4.11;100.00
60015;BME280;45867;52.480;6.056;2023-12-14T00:41:21;100127.19;;;3.97;100.00
60015;BME280;45867;52.480;6.056;2023-12-14T00:43:51;100139.75;;;4.12;100.00
60015;BME280;45867;52.480;6.056;2023-12-14T00:46:20;100118.94;;;4.06;100.00
60015;BME280;45867;52.480;6.056;2023-12-14T00:48:50;100172.47;;;4.27;100.00
60015;BME280;45867;52.480;6.056;2023-12-14T00:51:16;100155.41;;;4.07;100.00
60015;BME280;45867;52.480;6.056;2023-12-14T00:53:46;100152.53;;;4.09;100.00
60015;BME280;45867;52.480;6.056;2023-12-14T00:56:17;100170.19;;;4.13;100.00
60015;BME280;45867;52.480;6.056;2023-12-14T00:58:52;100174.72;;;4.18;100.00
60015;BME280;45867;52.480;6.056;2023-12-14T01:01:22;100158.34;;;4.11;100.00
60015;BME280;45867;52.480;6.056;2023-12-14T01:03:48;100165.81;;;4.02;100.00
60015;BME280;45867;52.480;6.056;2023-12-14T01:06:15;100164.53;;;4.05;100.00
60015;BME280;45867;52.480;6.056;2023-12-14T01:08:45;100157.94;;;4.02;100.00
60015;BME280;45867;52.480;6.056;2023-12-14T01:11:12;100188.38;;;4.20;100.00
60015;BME280;45867;52.480;6.056;2023-12-14T01:13:41;100182.81;;;4.16;100.00
60015;BME280;45867;52.480;6.056;2023-12-14T01:16:07;100191.47;;;4.17;100.00
60015;BME280;45867;52.480;6.056;2023-12-14T01:18:34;100179.50;;;4.04;100.00
60015;BME280;45867;52.480;6.056;2023-12-14T01:21:01;100182.34;;;4.03;100.00
60015;BME280;45867;52.480;6.056;2023-12-14T01:23:28;100193.31;;;3.99;100.00
60015;BME280;45867;52.480;6.056;2023-12-14T01:25:58;100189.50;;;4.07;100.00
60015;BME280;45867;52.480;6.056;2023-12-14T01:28:25;100191.00;;;4.03;100.00
60015;BME280;45867;52.480;6.056;2023-12-14T01:30:58;100210.56;;;4.12;100.00
60015;BME280;45867;52.480;6.056;2023-12-14T01:33:32;100213.41;;;4.11;100.00
60015;BME280;45867;52.480;6.056;2023-12-14T01:35:58;100229.06;;;4.22;100.00
60015;BME280;45867;52.480;6.056;2023-12-14T01:38:25;100220.00;;;4.13;100.00
60015;BME280;45867;52.480;6.056;2023-12-14T01:40:55;100232.00;;;4.09;100.00
60015;BME280;45867;52.480;6.056;2023-12-14T01:43:24;100242.34;;;4.16;100.00
60015;BME280;45867;52.480;6.056;2023-12-14T01:45:51;100243.50;;;4.25;100.00
60015;BME280;45867;52.480;6.056;2023-12-14T01:48:22;100253.31;;;4.13;100.00
60015;BME280;45867;52.480;6.056;2023-12-14T01:50:49;100268.47;;;4.28;100.00
60015;BME280;45867;52.480;6.056;2023-12-14T01:53:20;100269.25;;;4.11;100.00
60015;BME280;45867;52.480;6.056;2023-12-14T01:55:50;100283.03;;;4.18;100.00
60015;BME280;45867;52.480;6.056;2023-12-14T01:58:17;100254.69;;;4.04;100.00
60015;BME280;45867;52.480;6.056;2023-12-14T02:01:03;100278.81;;;4.17;100.00
60015;BME280;45867;52.480;6.056;2023-12-14T02:03:47;100271.56;;;4.08;100.00
60015;BME280;45867;52.480;6.056;2023-12-14T02:06:15;100289.22;;;4.12;100.00
60015;BME280;45867;52.480;6.056;2023-12-14T02:08:42;100280.22;;;4.08;100.00
60015;BME280;45867;52.480;6.056;2023-12-14T02:11:09;100300.69;;;4.23;100.00
60015;BME280;45867;52.480;6.056;2023-12-14T02:13:35;100303.91;;;4.13;100.00
60015;BME280;45867;52.480;6.056;2023-12-14T02:16:04;100321.47;;;4.13;100.00
60015;BME280;45867;52.480;6.056;2023-12-14T02:18:33;100284.41;;;3.92;100.00
60015;BME280;45867;52.480;6.056;2023-12-14T02:21:00;100341.09;;;4.10;100.00
60015;BME280;45867;52.480;6.056;2023-12-14T02:23:27;100327.41;;;4.08;100.00
60015;BME280;45867;52.480;6.056;2023-12-14T02:25:56;100316.03;;;4.03;100.00
60015;BME280;45867;52.480;6.056;2023-12-14T02:28:26;100311.88;;;3.90;100.00
60015;BME280;45867;52.480;6.056;2023-12-14T02:30:57;100336.44;;;4.00;100.00
60015;BME280;45867;52.480;6.056;2023-12-14T02:33:28;100328.16;;;3.92;100.00
60015;BME280;45867;52.480;6.056;2023-12-14T02:35:55;100352.38;;;4.11;100.00
60015;BME280;45867;52.480;6.056;2023-12-14T02:38:29;100361.97;;;4.05;100.00
60015;BME280;45867;52.480;6.056;2023-12-14T02:40:56;100373.03;;;4.07;100.00
60015;BME280;45867;52.480;6.056;2023-12-14T02:43:24;100372.16;;;4.02;100.00
60015;BME280;45867;52.480;6.056;2023-12-14T02:45:51;100372.50;;;3.93;100.00
60015;BME280;45867;52.480;6.056;2023-12-14T02:48:19;100398.09;;;4.03;100.00
60015;BME280;45867;52.480;6.056;2023-12-14T02:50:51;100388.00;;;3.95;100.00
60015;BME280;45867;52.480;6.056;2023-12-14T02:53:21;100401.81;;;3.90;100.00
60015;BME280;45867;52.480;6.056;2023-12-14T02:55:51;100397.72;;;3.83;100.00
60015;BME280;45867;52.480;6.056;2023-12-14T02:58:22;100405.91;;;3.86;100.00
60015;BME280;45867;52.480;6.056;2023-12-14T03:00:49;100409.22;;;3.82;100.00
60015;BME280;45867;52.480;6.056;2023-12-14T03:03:15;100421.16;;;3.89;100.00
60015;BME280;45867;52.480;6.056;2023-12-14T03:05:42;100407.16;;;3.84;100.00
60015;BME280;45867;52.480;6.056;2023-12-14T03:08:09;100421.97;;;3.90;100.00
60015;BME280;45867;52.480;6.056;2023-12-14T03:10:36;100412.09;;;3.80;100.00
60015;BME280;45867;52.480;6.056;2023-12-14T03:13:03;100441.00;;;3.97;100.00
60015;BME280;45867;52.480;6.056;2023-12-14T03:15:29;100443.50;;;3.92;100.00
60015;BME280;45867;52.480;6.056;2023-12-14T03:17:56;100460.25;;;4.03;100.00
60015;BME280;45867;52.480;6.056;2023-12-14T03:20:22;100456.72;;;3.97;100.00
60015;BME280;45867;52.480;6.056;2023-12-14T03:22:50;100423.72;;;3.72;100.00
60015;BME280;45867;52.480;6.056;2023-12-14T03:28:06;100469.59;;;3.87;100.00
60015;BME280;45867;52.480;6.056;2023-12-14T03:30:34;100463.34;;;3.88;100.00
60015;BME280;45867;52.480;6.056;2023-12-14T03:33:01;100476.66;;;3.98;100.00
60015;BME280;45867;52.480;6.056;2023-12-14T03:35:33;100455.38;;;3.83;100.00
60015;BME280;45867;52.480;6.056;2023-12-14T03:38:00;100479.97;;;3.82;100.00
60015;BME280;45867;52.480;6.056;2023-12-14T03:40:27;100463.81;;;3.73;100.00
60015;BME280;45867;52.480;6.056;2023-12-14T03:42:58;100464.50;;;3.80;100.00
60015;BME280;45867;52.480;6.056;2023-12-14T03:45:24;100481.25;;;3.91;100.00
60015;BME280;45867;52.480;6.056;2023-12-14T03:47:50;100458.81;;;3.71;100.00
60015;BME280;45867;52.480;6.056;2023-12-14T03:50:20;100480.09;;;3.87;100.00
60015;BME280;45867;52.480;6.056;2023-12-14T03:52:49;100477.25;;;3.88;100.00
60015;BME280;45867;52.480;6.056;2023-12-14T03:55:19;100471.47;;;3.74;100.00
60015;BME280;45867;52.480;6.056;2023-12-14T03:57:46;100460.97;;;3.74;100.00
60015;BME280;45867;52.480;6.056;2023-12-14T04:00:13;100469.41;;;3.76;100.00
60015;BME280;45867;52.480;6.056;2023-12-14T04:02:40;100443.53;;;3.56;100.00
60015;BME280;45867;52.480;6.056;2023-12-14T04:05:07;100441.63;;;3.52;100.00
60015;BME280;45867;52.480;6.056;2023-12-14T04:07:39;100456.06;;;3.54;100.00
60015;BME280;45867;52.480;6.056;2023-12-14T04:10:10;100482.41;;;3.71;100.00
60015;BME280;45867;52.480;6.056;2023-12-14T04:12:38;100475.91;;;3.62;100.00
60015;BME280;45867;52.480;6.056;2023-12-14T04:15:09;100474.06;;;3.63;100.00
60015;BME280;45867;52.480;6.056;2023-12-14T04:17:40;100466.91;;;3.58;100.00
60015;BME280;45867;52.480;6.056;2023-12-14T04:20:10;100471.69;;;3.49;100.00
60015;BME280;45867;52.480;6.056;2023-12-14T04:22:37;100499.03;;;3.65;100.00
60015;BME280;45867;52.480;6.056;2023-12-14T04:25:07;100496.84;;;3.62;100.00
60015;BME280;45867;52.480;6.056;2023-12-14T04:27:36;100500.38;;;3.68;100.00
60015;BME280;45867;52.480;6.056;2023-12-14T04:30:03;100501.97;;;3.57;100.00
60015;BME280;45867;52.480;6.056;2023-12-14T04:32:30;100521.00;;;3.64;100.00
60015;BME280;45867;52.480;6.056;2023-12-14T04:34:57;100534.34;;;3.63;100.00
60015;BME280;45867;52.480;6.056;2023-12-14T04:37:30;100529.09;;;3.51;100.00
60015;BME280;45867;52.480;6.056;2023-12-14T04:39:57;100551.88;;;3.62;100.00
60015;BME280;45867;52.480;6.056;2023-12-14T04:42:29;100537.06;;;3.44;100.00
60015;BME280;45867;52.480;6.056;2023-12-14T04:44:58;100548.81;;;3.53;100.00
60015;BME280;45867;52.480;6.056;2023-12-14T04:47:31;100527.25;;;3.40;100.00
60015;BME280;45867;52.480;6.056;2023-12-14T04:49:59;100577.53;;;3.72;100.00
60015;BME280;45867;52.480;6.056;2023-12-14T04:52:30;100581.63;;;3.68;100.00
60015;BME280;45867;52.480;6.056;2023-12-14T04:55:01;100558.94;;;3.50;100.00
60015;BME280;45867;52.480;6.056;2023-12-14T04:57:28;100562.00;;;3.47;100.00
60015;BME280;45867;52.480;6.056;2023-12-14T04:59:55;100599.63;;;3.64;100.00
60015;BME280;45867;52.480;6.056;2023-12-14T05:02:28;100597.78;;;3.53;100.00
60015;BME280;45867;52.480;6.056;2023-12-14T05:04:55;100620.56;;;3.52;100.00
60015;BME280;45867;52.480;6.056;2023-12-14T05:07:24;100642.13;;;3.66;100.00
60015;BME280;45867;52.480;6.056;2023-12-14T05:09:51;100635.38;;;3.47;100.00
60015;BME280;45867;52.480;6.056;2023-12-14T05:12:25;100645.41;;;3.50;100.00
60015;BME280;45867;52.480;6.056;2023-12-14T05:14:52;100636.81;;;3.43;100.00
60015;BME280;45867;52.480;6.056;2023-12-14T05:17:21;100670.03;;;3.61;100.00
60015;BME280;45867;52.480;6.056;2023-12-14T05:19:54;100681.84;;;3.51;100.00
60015;BME280;45867;52.480;6.056;2023-12-14T05:22:20;100699.81;;;3.48;100.00
60015;BME280;45867;52.480;6.056;2023-12-14T05:24:50;100689.31;;;3.36;100.00
60015;BME280;45867;52.480;6.056;2023-12-14T05:27:20;100704.22;;;3.36;100.00
60015;BME280;45867;52.480;6.056;2023-12-14T05:29:49;100715.13;;;3.32;100.00
60015;BME280;45867;52.480;6.056;2023-12-14T05:32:16;100744.47;;;3.41;100.00
60015;BME280;45867;52.480;6.056;2023-12-14T05:34:44;100766.97;;;3.61;100.00
60015;BME280;45867;52.480;6.056;2023-12-14T05:37:11;100774.75;;;3.67;100.00
60015;BME280;45867;52.480;6.056;2023-12-14T05:39:41;100771.44;;;3.60;100.00
60015;BME280;45867;52.480;6.056;2023-12-14T05:42:20;100765.59;;;3.58;100.00
60015;BME280;45867;52.480;6.056;2023-12-14T05:44:47;100805.19;;;3.68;100.00
60015;BME280;45867;52.480;6.056;2023-12-14T05:47:16;100806.63;;;3.64;100.00
60015;BME280;45867;52.480;6.056;2023-12-14T05:49:52;100816.63;;;3.55;100.00
60015;BME280;45867;52.480;6.056;2023-12-14T05:52:24;100829.56;;;3.50;100.00
60015;BME280;45867;52.480;6.056;2023-12-14T05:54:54;100860.38;;;3.55;100.00
60015;BME280;45867;52.480;6.056;2023-12-14T05:57:20;100872.44;;;3.56;100.00
60015;BME280;45867;52.480;6.056;2023-12-14T05:59:50;100883.94;;;3.55;100.00
60015;BME280;45867;52.480;6.056;2023-12-14T06:02:21;100883.88;;;3.62;100.00
60015;BME280;45867;52.480;6.056;2023-12-14T06:04:56;100859.28;;;3.44;100.00
60015;BME280;45867;52.480;6.056;2023-12-14T06:07:23;100898.34;;;3.64;100.00
60015;BME280;45867;52.480;6.056;2023-12-14T06:09:49;100877.81;;;3.43;100.00
60015;BME280;45867;52.480;6.056;2023-12-14T06:12:16;100886.63;;;3.48;100.00
60015;BME280;45867;52.480;6.056;2023-12-14T06:14:56;100896.75;;;3.45;100.00
60015;BME280;45867;52.480;6.056;2023-12-14T06:17:25;100920.25;;;3.51;100.00
60015;BME280;45867;52.480;6.056;2023-12-14T06:19:55;100910.44;;;3.47;100.00
60015;BME280;45867;52.480;6.056;2023-12-14T06:22:22;100928.50;;;3.55;100.00
60015;BME280;45867;52.480;6.056;2023-12-14T06:24:49;100900.50;;;3.30;100.00
60015;BME280;45867;52.480;6.056;2023-12-14T06:27:18;100918.28;;;3.47;100.00
60015;BME280;45867;52.480;6.056;2023-12-14T06:29:53;100908.09;;;3.39;100.00
60015;BME280;45867;52.480;6.056;2023-12-14T06:32:23;100945.28;;;3.47;100.00
60015;BME280;45867;52.480;6.056;2023-12-14T06:34:50;100961.81;;;3.48;100.00
60015;BME280;45867;52.480;6.056;2023-12-14T06:37:16;100968.28;;;3.45;100.00
60015;BME280;45867;52.480;6.056;2023-12-14T06:39:43;100961.88;;;3.41;100.00
60015;BME280;45867;52.480;6.056;2023-12-14T06:42:37;100974.44;;;3.58;100.00
60015;BME280;45867;52.480;6.056;2023-12-14T06:45:04;100970.69;;;3.47;100.00
60015;BME280;45867;52.480;6.056;2023-12-14T06:47:31;100976.72;;;3.47;100.00
60015;BME280;45867;52.480;6.056;2023-12-14T06:49:58;100953.69;;;3.31;100.00
60015;BME280;45867;52.480;6.056;2023-12-14T06:52:25;100974.91;;;3.48;100.00
60015;BME280;45867;52.480;6.056;2023-12-14T06:54:51;100933.97;;;3.28;100.00
60015;BME280;45867;52.480;6.056;2023-12-14T06:57:21;100924.97;;;3.43;100.00
60015;BME280;45867;52.480;6.056;2023-12-14T06:59:53;100958.97;;;3.49;100.00
60015;BME280;45867;52.480;6.056;2023-12-14T07:02:20;100940.16;;;3.34;100.00
60015;BME280;45867;52.480;6.056;2023-12-14T07:04:49;100979.50;;;3.52;100.00
60015;BME280;45867;52.480;6.056;2023-12-14T07:07:16;100974.16;;;3.41;100.00
60015;BME280;45867;52.480;6.056;2023-12-14T07:09:51;100950.47;;;3.29;100.00
60015;BME280;45867;52.480;6.056;2023-12-14T07:12:21;100955.97;;;3.46;100.00
60015;BME280;45867;52.480;6.056;2023-12-14T07:14:51;100979.13;;;3.49;100.00
60015;BME280;45867;52.480;6.056;2023-12-14T07:17:19;100974.09;;;3.47;100.00
60015;BME280;45867;52.480;6.056;2023-12-14T07:19:46;100988.38;;;3.51;100.00
60015;BME280;45867;52.480;6.056;2023-12-14T07:22:19;100983.19;;;3.45;100.00
60015;BME280;45867;52.480;6.056;2023-12-14T07:24:46;101000.31;;;3.47;100.00
60015;BME280;45867;52.480;6.056;2023-12-14T07:27:24;100995.66;;;3.49;100.00
60015;BME280;45867;52.480;6.056;2023-12-14T07:29:54;101009.00;;;3.66;100.00
60015;BME280;45867;52.480;6.056;2023-12-14T07:32:21;100991.09;;;3.38;100.00
60015;BME280;45867;52.480;6.056;2023-12-14T07:34:55;101010.53;;;3.55;100.00
60015;BME280;45867;52.480;6.056;2023-12-14T07:37:28;101013.78;;;3.51;100.00
60015;BME280;45867;52.480;6.056;2023-12-14T07:40:01;101019.06;;;3.44;100.00
60015;BME280;45867;52.480;6.056;2023-12-14T07:42:34;101026.94;;;3.44;100.00
60015;BME280;45867;52.480;6.056;2023-12-14T07:45:01;101037.16;;;3.52;100.00
60015;BME280;45867;52.480;6.056;2023-12-14T07:47:29;101049.19;;;3.60;100.00
60015;BME280;45867;52.480;6.056;2023-12-14T07:49:55;101045.22;;;3.51;100.00
60015;BME280;45867;52.480;6.056;2023-12-14T07:52:31;101040.84;;;3.45;100.00
60015;BME280;45867;52.480;6.056;2023-12-14T07:55:03;101065.91;;;3.59;100.00
60015;BME280;45867;52.480;6.056;2023-12-14T07:57:29;101046.66;;;3.47;100.00
60015;BME280;45867;52.480;6.056;2023-12-14T07:59:57;101048.63;;;3.51;100.00
60015;BME280;45867;52.480;6.056;2023-12-14T08:02:23;101087.16;;;3.76;100.00
60015;BME280;45867;52.480;6.056;2023-12-14T08:04:50;101055.84;;;3.56;100.00
60015;BME280;45867;52.480;6.056;2023-12-14T08:07:20;101102.88;;;3.76;100.00
60015;BME280;45867;52.480;6.056;2023-12-14T08:09:46;101093.13;;;3.58;100.00
60015;BME280;45867;52.480;6.056;2023-12-14T08:12:16;101102.31;;;3.74;100.00
60015;BME280;45867;52.480;6.056;2023-12-14T08:14:44;101098.81;;;3.55;100.00
60015;BME280;45867;52.480;6.056;2023-12-14T08:17:10;101139.81;;;3.68;100.00
60015;BME280;45867;52.480;6.056;2023-12-14T08:19:37;101144.28;;;3.67;100.00
60015;BME280;45867;52.480;6.056;2023-12-14T08:22:04;101125.81;;;3.55;100.00
60015;BME280;45867;52.480;6.056;2023-12-14T08:24:31;101110.97;;;3.43;100.00
60015;BME280;45867;52.480;6.056;2023-12-14T08:27:00;101136.22;;;3.69;100.00
60015;BME280;45867;52.480;6.056;2023-12-14T08:29:26;101099.25;;;3.52;100.00
60015;BME280;45867;52.480;6.056;2023-12-14T08:31:53;101108.72;;;3.46;100.00
60015;BME280;45867;52.480;6.056;2023-12-14T08:34:20;101125.06;;;3.73;100.00
60015;BME280;45867;52.480;6.056;2023-12-14T08:36:46;101143.97;;;3.82;100.00
60015;BME280;45867;52.480;6.056;2023-12-14T08:39:22;101140.53;;;3.82;100.00
60015;BME280;45867;52.480;6.056;2023-12-14T08:41:49;101146.38;;;3.84;100.00
60015;BME280;45867;52.480;6.056;2023-12-14T08:44:15;101142.78;;;3.78;100.00
60015;BME280;45867;52.480;6.056;2023-12-14T08:46:46;101152.91;;;3.74;100.00
60015;BME280;45867;52.480;6.056;2023-12-14T08:49:15;101160.75;;;3.74;100.00
60015;BME280;45867;52.480;6.056;2023-12-14T08:51:42;101170.19;;;3.82;100.00
60015;BME280;45867;52.480;6.056;2023-12-14T08:54:11;101162.63;;;3.67;100.00
60015;BME280;45867;52.480;6.056;2023-12-14T08:56:37;101185.22;;;3.68;100.00
60015;BME280;45867;52.480;6.056;2023-12-14T08:59:09;101203.69;;;3.80;100.00
60015;BME280;45867;52.480;6.056;2023-12-14T09:01:39;101221.78;;;3.82;100.00
60015;BME280;45867;52.480;6.056;2023-12-14T09:04:09;101174.38;;;3.58;100.00
60015;BME280;45867;52.480;6.056;2023-12-14T09:06:36;101182.47;;;3.50;100.00
60015;BME280;45867;52.480;6.056;2023-12-14T09:09:02;101220.41;;;3.79;100.00
60015;BME280;45867;52.480;6.056;2023-12-14T09:11:29;101216.84;;;3.67;100.00
60015;BME280;45867;52.480;6.056;2023-12-14T09:13:59;101221.31;;;3.66;100.00
60015;BME280;45867;52.480;6.056;2023-12-14T09:16:34;101245.63;;;3.80;100.00
60015;BME280;45867;52.480;6.056;2023-12-14T09:19:04;101223.50;;;3.63;100.00
60015;BME280;45867;52.480;6.056;2023-12-14T09:21:31;101263.59;;;3.76;100.00
60015;BME280;45867;52.480;6.056;2023-12-14T09:24:09;101270.84;;;3.74;100.00
60015;BME280;45867;52.480;6.056;2023-12-14T09:26:45;101243.91;;;3.61;100.00
60015;BME280;45867;52.480;6.056;2023-12-14T09:29:12;101284.91;;;3.87;100.00
60015;BME280;45867;52.480;6.056;2023-12-14T09:31:42;101270.22;;;3.79;100.00
60015;BME280;45867;52.480;6.056;2023-12-14T09:34:29;101304.22;;;3.92;100.00
60015;BME280;45867;52.480;6.056;2023-12-14T09:36:56;101309.72;;;3.84;100.00
60015;BME280;45867;52.480;6.056;2023-12-14T09:39:25;101322.63;;;3.86;100.00
60015;BME280;45867;52.480;6.056;2023-12-14T09:41:51;101320.78;;;3.86;100.00
60015;BME280;45867;52.480;6.056;2023-12-14T09:44:23;101333.47;;;3.96;100.00
60015;BME280;45867;52.480;6.056;2023-12-14T09:46:53;101348.53;;;4.07;100.00
60015;BME280;45867;52.480;6.056;2023-12-14T09:49:26;101329.03;;;3.90;100.00
60015;BME280;45867;52.480;6.056;2023-12-14T09:51:53;101331.09;;;3.88;100.00
60015;BME280;45867;52.480;6.056;2023-12-14T09:54:20;101368.91;;;4.05;100.00
60015;BME280;45867;52.480;6.056;2023-12-14T09:56:50;101350.00;;;3.96;100.00
60015;BME280;45867;52.480;6.056;2023-12-14T09:59:25;101377.31;;;4.20;100.00
60015;BME280;45867;52.480;6.056;2023-12-14T10:02:08;101384.22;;;4.15;100.00
60015;BME280;45867;52.480;6.056;2023-12-14T10:04:38;101374.94;;;4.12;100.00
60015;BME280;45867;52.480;6.056;2023-12-14T10:07:05;101361.66;;;4.00;100.00
60015;BME280;45867;52.480;6.056;2023-12-14T10:09:32;101404.75;;;4.25;100.00
60015;BME280;45867;52.480;6.056;2023-12-14T10:12:06;101389.38;;;4.28;100.00
60015;BME280;45867;52.480;6.056;2023-12-14T10:14:33;101408.00;;;4.58;100.00
60015;BME280;45867;52.480;6.056;2023-12-14T10:17:20;101402.84;;;4.38;100.00
60015;BME280;45867;52.480;6.056;2023-12-14T10:19:47;101415.94;;;4.45;100.00
60015;BME280;45867;52.480;6.056;2023-12-14T10:22:16;101457.03;;;4.58;100.00
60015;BME280;45867;52.480;6.056;2023-12-14T10:24:51;101462.16;;;4.46;100.00
60015;BME280;45867;52.480;6.056;2023-12-14T10:27:19;101437.66;;;4.20;100.00
60015;BME280;45867;52.480;6.056;2023-12-14T10:29:46;101465.16;;;4.50;100.00
60015;BME280;45867;52.480;6.056;2023-12-14T10:32:14;101431.19;;;4.23;100.00
60015;BME280;45867;52.480;6.056;2023-12-14T10:34:41;101469.63;;;4.49;100.00
60015;BME280;45867;52.480;6.056;2023-12-14T10:37:08;101454.09;;;4.41;100.00
60015;BME280;45867;52.480;6.056;2023-12-14T10:39:35;101455.38;;;4.70;100.00
60015;BME280;45867;52.480;6.056;2023-12-14T10:42:03;101458.88;;;4.57;100.00
60015;BME280;45867;52.480;6.056;2023-12-14T10:44:45;101440.75;;;4.49;100.00
60015;BME280;45867;52.480;6.056;2023-12-14T10:47:15;101424.19;;;4.49;100.00
60015;BME280;45867;52.480;6.056;2023-12-14T10:49:50;101409.72;;;4.39;100.00
60015;BME280;45867;52.480;6.056;2023-12-14T10:52:21;101422.59;;;4.48;100.00
60015;BME280;45867;52.480;6.056;2023-12-14T10:55:07;101422.38;;;4.49;100.00
60015;BME280;45867;52.480;6.056;2023-12-14T10:57:35;101400.81;;;4.40;100.00
60015;BME280;45867;52.480;6.056;2023-12-14T11:00:09;101401.63;;;4.41;100.00
60015;BME280;45867;52.480;6.056;2023-12-14T11:02:45;101416.28;;;4.55;100.00
60015;BME280;45867;52.480;6.056;2023-12-14T11:05:18;101396.91;;;4.56;100.00
60015;BME280;45867;52.480;6.056;2023-12-14T11:10:25;101415.63;;;4.66;100.00
60015;BME280;45867;52.480;6.056;2023-12-14T11:13:04;101421.78;;;4.79;100.00
60015;BME280;45867;52.480;6.056;2023-12-14T11:15:37;101433.25;;;4.84;100.00
60015;BME280;45867;52.480;6.056;2023-12-14T11:23:27;101411.22;;;4.85;100.00
60015;BME280;45867;52.480;6.056;2023-12-14T11:25:58;101433.63;;;4.88;100.00
60015;BME280;45867;52.480;6.056;2023-12-14T11:28:27;101437.63;;;4.97;100.00
60015;BME280;45867;52.480;6.056;2023-12-14T11:30:55;101454.56;;;5.01;100.00
60015;BME280;45867;52.480;6.056;2023-12-14T11:33:23;101447.16;;;4.92;100.00
60015;BME280;45867;52.480;6.056;2023-12-14T11:35:52;101466.25;;;5.05;100.00
60015;BME280;45867;52.480;6.056;2023-12-14T11:38:19;101471.00;;;5.15;100.00
60015;BME280;45867;52.480;6.056;2023-12-14T11:40:50;101499.78;;;5.35;100.00
60015;BME280;45867;52.480;6.056;2023-12-14T11:43:20;101508.50;;;5.29;100.00
60015;BME280;45867;52.480;6.056;2023-12-14T11:45:50;101496.75;;;5.06;100.00
60015;BME280;45867;52.480;6.056;2023-12-14T11:48:20;101541.28;;;5.26;100.00
60015;BME280;45867;52.480;6.056;2023-12-14T11:50:54;101524.16;;;5.17;100.00
60015;BME280;45867;52.480;6.056;2023-12-14T11:53:25;101549.13;;;5.33;100.00
60015;BME280;45867;52.480;6.056;2023-12-14T11:55:53;101552.00;;;5.25;100.00
60015;BME280;45867;52.480;6.056;2023-12-14T11:58:20;101569.88;;;5.41;100.00
60015;BME280;45867;52.480;6.056;2023-12-14T12:00:50;101550.34;;;5.30;100.00
60015;BME280;45867;52.480;6.056;2023-12-14T12:03:20;101589.31;;;5.40;100.00
60015;BME280;45867;52.480;6.056;2023-12-14T12:05:53;101617.16;;;5.48;100.00
60015;BME280;45867;52.480;6.056;2023-12-14T12:08:21;101661.69;;;5.74;100.00
60015;BME280;45867;52.480;6.056;2023-12-14T12:10:48;101619.59;;;5.74;100.00
60015;BME280;45867;52.480;6.056;2023-12-14T12:13:17;101651.69;;;5.83;100.00
60015;BME280;45867;52.480;6.056;2023-12-14T12:15:51;101669.19;;;5.71;100.00
60015;BME280;45867;52.480;6.056;2023-12-14T12:18:40;101681.19;;;5.60;100.00
60015;BME280;45867;52.480;6.056;2023-12-14T12:21:07;101711.53;;;5.56;100.00
60015;BME280;45867;52.480;6.056;2023-12-14T12:23:35;101717.22;;;5.53;100.00
60015;BME280;45867;52.480;6.056;2023-12-14T12:26:04;101746.78;;;5.48;100.00
60015;BME280;45867;52.480;6.056;2023-12-14T12:28:31;101763.19;;;5.44;100.00
60015;BME280;45867;52.480;6.056;2023-12-14T12:30:58;101736.78;;;5.19;100.00
60015;BME280;45867;52.480;6.056;2023-12-14T12:33:26;101748.41;;;5.43;100.00
60015;BME280;45867;52.480;6.056;2023-12-14T12:35:55;101726.38;;;5.44;100.00
60015;BME280;45867;52.480;6.056;2023-12-14T12:38:22;101709.22;;;5.34;100.00
60015;BME280;45867;52.480;6.056;2023-12-14T12:40:52;101731.66;;;5.37;100.00
60015;BME280;45867;52.480;6.056;2023-12-14T12:43:20;101721.97;;;5.31;100.00
60015;BME280;45867;52.480;6.056;2023-12-14T12:45:47;101718.22;;;5.14;100.00
60015;BME280;45867;52.480;6.056;2023-12-14T12:48:22;101754.31;;;5.31;100.00
60015;BME280;45867;52.480;6.056;2023-12-14T12:50:53;101755.25;;;5.50;100.00
60015;BME280;45867;52.480;6.056;2023-12-14T12:53:19;101746.84;;;5.35;100.00
60015;BME280;45867;52.480;6.056;2023-12-14T12:55:46;101797.97;;;5.46;100.00
60015;BME280;45867;52.480;6.056;2023-12-14T12:58:15;101794.13;;;5.42;100.00
60015;BME280;45867;52.480;6.056;2023-12-14T13:00:42;101795.09;;;5.47;100.00
60015;BME280;45867;52.480;6.056;2023-12-14T13:03:10;101804.66;;;5.28;100.00
60015;BME280;45867;52.480;6.056;2023-12-14T13:05:36;101807.09;;;5.30;100.00
60015;BME280;45867;52.480;6.056;2023-12-14T13:08:03;101809.94;;;5.15;100.00
60015;BME280;45867;52.480;6.056;2023-12-14T13:10:30;101806.13;;;5.11;100.00
60015;BME280;45867;52.480;6.056;2023-12-14T13:12:58;101813.00;;;5.19;100.00